createdAt,value
2023-03-04T00:00:22.121Z,101370.94
2023-03-04T00:05:20.098Z,101368.75
2023-03-04T00:10:19.529Z,101369.94
2023-03-04T00:15:17.322Z,101378.09
2023-03-04T00:20:15.666Z,101367.06
2023-03-04T00:25:13.524Z,101364.59
2023-03-04T00:30:13.256Z,101366.25
2023-03-04T00:35:11.156Z,101364.03
2023-03-04T00:40:09.638Z,101360.28
2023-03-04T00:45:08.415Z,101358.88
2023-03-04T00:50:08.164Z,101367.69
2023-03-04T00:55:06.700Z,101373.06
2023-03-04T01:00:05.698Z,101364.50
2023-03-04T01:05:03.502Z,101367.47
2023-03-04T01:10:02.758Z,101364.28
2023-03-04T01:15:00.540Z,101368.16
2023-03-04T01:19:58.356Z,101363.06
2023-03-04T01:24:56.177Z,101366.63
2023-03-04T01:29:55.407Z,101354.22
2023-03-04T01:34:53.699Z,101357.34
2023-03-04T01:39:51.537Z,101359.00
2023-03-04T01:44:49.903Z,101359.00
2023-03-04T01:49:52.231Z,101346.53
2023-03-04T01:54:50.243Z,101346.22
2023-03-04T01:59:48.412Z,101329.72
2023-03-04T02:04:46.204Z,101325.56
2023-03-04T02:09:45.772Z,101334.00
2023-03-04T02:14:44.618Z,101327.06
2023-03-04T02:19:45.722Z,101330.59
2023-03-04T02:24:47.501Z,101329.22
2023-03-04T02:29:46.844Z,101318.91
2023-03-04T02:34:47.662Z,101327.50
2023-03-04T02:39:46.552Z,101333.81
2023-03-04T02:44:47.672Z,101335.22
2023-03-04T02:49:47.866Z,101335.56
2023-03-04T02:54:46.337Z,101316.53
2023-03-04T02:59:44.253Z,101310.34
2023-03-04T03:04:49.350Z,101312.84
2023-03-04T03:09:50.033Z,101305.34
2023-03-04T03:14:49.312Z,101312.16
2023-03-04T03:19:51.595Z,101305.94
2023-03-04T03:24:49.435Z,101317.03
2023-03-04T03:29:47.290Z,101319.34
2023-03-04T03:34:45.068Z,101316.56
2023-03-04T03:39:44.635Z,101322.09
2023-03-04T03:44:42.412Z,101315.16
2023-03-04T03:49:40.208Z,101313.09
2023-03-04T03:54:37.978Z,101308.69
2023-03-04T03:59:37.222Z,101299.81
2023-03-04T04:04:35.008Z,101308.50
2023-03-04T04:09:32.790Z,101308.03
2023-03-04T04:14:30.555Z,101304.41
2023-03-04T04:19:29.841Z,101303.69
2023-03-04T04:24:27.702Z,101296.25
2023-03-04T04:29:25.530Z,101310.47
2023-03-04T04:34:23.322Z,101308.00
2023-03-04T04:39:22.693Z,101312.91
2023-03-04T04:44:20.506Z,101328.03
2023-03-04T04:49:18.388Z,101321.34
2023-03-04T04:54:16.327Z,101330.72
2023-03-04T04:59:15.523Z,101332.34
2023-03-04T05:04:13.328Z,101331.72
2023-03-04T05:09:11.149Z,101332.00
2023-03-04T05:14:08.963Z,101332.41
2023-03-04T05:19:08.298Z,101329.72
2023-03-04T05:24:06.477Z,101337.63
2023-03-04T05:29:04.407Z,101337.59
2023-03-04T05:34:02.488Z,101350.09
2023-03-04T05:39:01.730Z,101354.94
2023-03-04T05:43:59.640Z,101351.69
2023-03-04T05:48:57.497Z,101355.00
2023-03-04T05:53:55.328Z,101358.97
2023-03-04T05:58:57.718Z,101356.75
2023-03-04T06:03:55.718Z,101356.16
2023-03-04T06:08:53.647Z,101365.69
2023-03-04T06:13:51.504Z,101364.28
2023-03-04T06:18:50.700Z,101371.97
2023-03-04T06:23:48.532Z,101375.59
2023-03-04T06:28:46.654Z,101377.41
2023-03-04T06:33:44.492Z,101385.34
2023-03-04T06:38:43.693Z,101396.31
2023-03-04T06:43:41.505Z,101390.13
2023-03-04T06:48:39.400Z,101390.72
2023-03-04T06:53:37.283Z,101396.34
2023-03-04T06:58:36.601Z,101391.19
2023-03-04T07:03:34.399Z,101392.28
2023-03-04T07:08:32.225Z,101391.09
2023-03-04T07:13:30.048Z,101389.06
2023-03-04T07:18:29.262Z,101380.66
2023-03-04T07:23:27.180Z,101371.47
2023-03-04T07:28:24.998Z,101373.56
2023-03-04T07:33:22.804Z,101373.09
2023-03-04T07:38:21.956Z,101361.56
2023-03-04T07:43:19.746Z,101362.56
2023-03-04T07:48:17.540Z,101355.25
2023-03-04T07:53:15.356Z,101353.84
2023-03-04T07:58:14.581Z,101357.06
2023-03-04T08:03:12.401Z,101339.84
2023-03-04T08:08:10.360Z,101327.44
2023-03-04T08:13:08.264Z,101338.78
2023-03-04T08:18:07.539Z,101335.94
2023-03-04T08:23:05.399Z,101335.59
2023-03-04T08:28:03.213Z,101326.69
2023-03-04T08:33:02.116Z,101319.19
2023-03-04T08:38:02.522Z,101313.34
2023-03-04T08:43:00.800Z,101318.97
2023-03-04T08:47:58.592Z,101315.31
2023-03-04T08:52:56.415Z,101312.34
2023-03-04T08:57:55.637Z,101302.75
2023-03-04T09:02:53.463Z,101295.88
2023-03-04T09:07:51.320Z,101292.69
2023-03-04T09:12:49.124Z,101292.50
2023-03-04T09:17:48.304Z,101285.75
2023-03-04T09:22:46.220Z,101278.91
2023-03-04T09:27:44.046Z,101281.53
2023-03-04T09:32:41.952Z,101281.09
2023-03-04T09:37:41.813Z,101272.81
2023-03-04T09:42:47.304Z,101256.91
2023-03-04T09:47:46.046Z,101258.75
2023-03-04T09:52:52.254Z,101251.28
2023-03-04T09:57:53.178Z,101243.59
2023-03-04T10:03:01.223Z,101244.56
2023-03-04T10:08:02.152Z,101231.47
2023-03-04T10:13:01.275Z,101233.94
2023-03-04T10:18:16.151Z,101224.25
2023-03-04T10:23:17.496Z,101213.00
2023-03-04T10:28:18.272Z,101209.66
2023-03-04T10:33:17.066Z,101202.91
2023-03-04T10:38:16.698Z,101199.22
2023-03-04T10:43:18.093Z,101195.41
2023-03-04T10:48:23.430Z,101176.38
2023-03-04T10:53:33.444Z,101156.84
2023-03-04T10:58:31.364Z,101148.03
2023-03-04T11:03:33.660Z,101141.91
2023-03-04T11:08:32.942Z,101127.31
2023-03-04T11:13:32.648Z,101120.16
2023-03-04T11:18:32.857Z,101108.06
2023-03-04T11:23:38.049Z,101106.56
2023-03-04T11:28:41.091Z,101101.44
2023-03-04T11:33:43.836Z,101085.50
2023-03-04T11:38:45.777Z,101082.47
2023-03-04T11:43:44.486Z,101080.25
2023-03-04T11:48:47.736Z,101080.84
2023-03-04T11:53:52.183Z,101072.66
2023-03-04T11:59:06.569Z,101065.91
2023-03-04T12:04:12.222Z,101060.59
2023-03-04T12:09:24.911Z,101054.19
2023-03-04T12:14:27.314Z,101053.31
2023-03-04T12:19:34.089Z,101054.97
2023-03-04T12:24:39.560Z,101044.69
2023-03-04T12:29:43.937Z,101035.97
2023-03-04T12:34:56.567Z,101025.53
2023-03-04T12:40:06.088Z,101020.88
2023-03-04T12:45:14.452Z,101015.78
2023-03-04T12:50:25.474Z,101009.84
2023-03-04T12:55:26.214Z,100999.28
2023-03-04T13:00:33.734Z,100987.41
2023-03-04T13:05:52.465Z,100985.09
2023-03-04T13:10:51.339Z,100973.28
2023-03-04T13:16:02.436Z,100966.53
2023-03-04T13:21:07.894Z,100956.16
2023-03-04T13:26:20.817Z,100949.09
2023-03-04T13:31:29.260Z,100944.22
2023-03-04T13:36:28.546Z,100939.81
2023-03-04T13:41:31.297Z,100936.25
2023-03-04T13:46:44.174Z,100929.22
2023-03-04T13:51:44.205Z,100918.44
2023-03-04T13:56:42.606Z,100910.78
2023-03-04T14:01:52.598Z,100901.09
2023-03-04T14:06:51.549Z,100899.03
2023-03-04T14:11:50.516Z,100892.72
2023-03-04T14:16:50.419Z,100879.66
2023-03-04T14:21:49.663Z,100875.47
2023-03-04T14:26:47.835Z,100872.41
2023-03-04T14:31:45.813Z,100864.66
2023-03-04T14:36:45.319Z,100858.41
2023-03-04T14:41:47.477Z,100856.28
2023-03-04T14:47:00.577Z,100851.03
2023-03-04T14:52:02.587Z,100847.16
2023-03-04T14:57:02.924Z,100846.50
2023-03-04T15:02:18.891Z,100843.97
2023-03-04T15:07:19.902Z,100836.13
2023-03-04T15:12:23.729Z,100839.72
2023-03-04T15:17:26.009Z,100832.03
2023-03-04T15:22:23.845Z,100837.63
2023-03-04T15:27:25.092Z,100827.44
2023-03-04T15:32:23.509Z,100832.84
2023-03-04T15:37:22.990Z,100825.19
2023-03-04T15:42:20.823Z,100819.47
2023-03-04T15:47:20.038Z,100811.28
2023-03-04T15:52:19.431Z,100807.75
2023-03-04T15:57:21.363Z,100810.50
2023-03-04T16:02:22.586Z,100803.38
2023-03-04T16:07:21.684Z,100805.91
2023-03-04T16:12:19.534Z,100793.91
2023-03-04T16:17:17.300Z,100805.03
2023-03-04T16:22:17.648Z,100809.19
2023-03-04T16:27:16.548Z,100805.69
2023-03-04T16:32:14.389Z,100803.00
2023-03-04T16:37:14.707Z,100810.06
2023-03-04T16:42:16.879Z,100809.63
2023-03-04T16:47:14.684Z,100812.91
2023-03-04T16:52:20.566Z,100811.50
2023-03-04T16:57:19.803Z,100819.72
2023-03-04T17:02:18.252Z,100821.22
2023-03-04T17:07:16.165Z,100818.13
2023-03-04T17:12:14.000Z,100814.34
2023-03-04T17:17:13.492Z,100819.00
2023-03-04T17:22:11.317Z,100814.19
2023-03-04T17:27:09.216Z,100806.34
2023-03-04T17:32:07.356Z,100817.16
2023-03-04T17:37:06.616Z,100822.38
2023-03-04T17:42:04.765Z,100817.72
2023-03-04T17:47:02.674Z,100816.59
2023-03-04T17:52:00.553Z,100822.78
2023-03-04T17:56:59.853Z,100821.63
2023-03-04T18:01:57.696Z,100815.25
2023-03-04T18:06:55.603Z,100817.88
2023-03-04T18:11:53.460Z,100823.22
2023-03-04T18:16:52.668Z,100821.41
2023-03-04T18:21:50.513Z,100815.75
2023-03-04T18:26:48.874Z,100820.38
2023-03-04T18:31:46.862Z,100815.88
2023-03-04T18:36:47.701Z,100811.38
2023-03-04T18:41:45.620Z,100816.00
2023-03-04T18:46:45.056Z,100814.31
2023-03-04T18:51:42.910Z,100814.44
2023-03-04T18:56:45.778Z,100817.81
2023-03-04T19:01:43.926Z,100818.69
2023-03-04T19:06:41.806Z,100823.53
2023-03-04T19:11:39.629Z,100820.81
2023-03-04T19:16:39.936Z,100824.00
2023-03-04T19:21:38.690Z,100821.88
2023-03-04T19:26:36.561Z,100823.88
2023-03-04T19:31:34.469Z,100824.88
2023-03-04T19:36:33.655Z,100828.38
2023-03-04T19:41:31.530Z,100834.91
2023-03-04T19:46:29.766Z,100839.88
2023-03-04T19:51:29.102Z,100839.34
2023-03-04T19:56:28.408Z,100838.22
2023-03-04T20:01:28.381Z,100834.88
2023-03-04T20:06:27.118Z,100832.34
2023-03-04T20:11:24.983Z,100835.88
2023-03-04T20:16:24.194Z,100828.81
2023-03-04T20:21:22.098Z,100840.69
2023-03-04T20:26:19.917Z,100846.50
2023-03-04T20:31:26.166Z,100838.75
2023-03-04T20:36:25.501Z,100836.69
2023-03-04T20:41:24.129Z,100849.25
2023-03-04T20:46:36.952Z,100835.28
2023-03-04T20:51:35.375Z,100838.13
2023-03-04T20:56:33.911Z,100831.25
2023-03-04T21:01:33.198Z,100836.31
2023-03-04T21:06:31.125Z,100832.63
2023-03-04T21:11:29.165Z,100827.97
2023-03-04T21:16:29.034Z,100827.06
2023-03-04T21:21:29.422Z,100829.19
2023-03-04T21:26:27.432Z,100826.03
2023-03-04T21:31:28.481Z,100815.44
2023-03-04T21:36:26.313Z,100813.84
2023-03-04T21:41:25.726Z,100811.22
2023-03-04T21:46:23.931Z,100807.06
2023-03-04T21:51:21.811Z,100800.59
2023-03-04T21:56:19.847Z,100800.31
2023-03-04T22:01:20.606Z,100801.78
2023-03-04T22:06:21.828Z,100804.13
2023-03-04T22:11:19.967Z,100800.47
2023-03-04T22:16:19.396Z,100795.00
2023-03-04T22:21:18.947Z,100792.16
2023-03-04T22:26:18.049Z,100792.06
2023-03-04T22:31:17.249Z,100797.16
2023-03-04T22:36:16.496Z,100777.13
2023-03-04T22:41:15.028Z,100772.16
2023-03-04T22:46:13.691Z,100763.38
2023-03-04T22:51:11.576Z,100758.88
2023-03-04T22:56:11.330Z,100762.28
2023-03-04T23:01:09.782Z,100755.47
2023-03-04T23:06:08.911Z,100755.69
2023-03-04T23:11:08.785Z,100756.19
2023-03-04T23:16:09.696Z,100760.06
2023-03-04T23:21:08.011Z,100764.53
2023-03-04T23:26:06.401Z,100751.38
2023-03-04T23:31:06.117Z,100748.09
2023-03-04T23:36:05.573Z,100748.63
2023-03-04T23:41:03.378Z,100761.63
2023-03-04T23:46:01.221Z,100757.22
2023-03-04T23:50:59.436Z,100754.88
2023-03-04T23:55:58.710Z,100753.38
